createdAt,value
2018-02-06T00:02:09.559Z,17.83
2018-02-06T00:04:37.838Z,17.98
2018-02-06T00:07:06.111Z,19.65
2018-02-06T00:09:34.403Z,17.95
2018-02-06T00:12:01.904Z,15.98
2018-02-06T00:14:29.403Z,19.73
2018-02-06T00:16:57.675Z,20.92
2018-02-06T00:19:25.932Z,21.35
2018-02-06T00:21:54.219Z,17.40
2018-02-06T00:24:21.708Z,17.23
2018-02-06T00:26:49.198Z,22.20
2018-02-06T00:29:16.694Z,15.93
2018-02-06T00:31:44.189Z,17.27
2018-02-06T00:34:11.714Z,17.45
2018-02-06T00:36:39.214Z,18.95
2018-02-06T00:39:06.726Z,21.48
2018-02-06T00:41:34.241Z,18.55
2018-02-06T00:44:01.730Z,16.92
2018-02-06T00:46:30.034Z,22.02
2018-02-06T00:48:58.294Z,19.20
2018-02-06T00:51:25.792Z,19.62
2018-02-06T00:53:53.310Z,20.08
2018-02-06T00:56:20.802Z,19.17
2018-02-06T00:58:48.318Z,19.45
2018-02-06T01:01:15.834Z,18.00
2018-02-06T01:03:43.329Z,18.73
2018-02-06T01:06:10.841Z,22.10
2018-02-06T01:08:38.334Z,19.37
2018-02-06T01:11:05.839Z,18.62
2018-02-06T01:13:34.116Z,20.00
2018-02-06T01:16:02.419Z,18.62
2018-02-06T01:18:30.650Z,16.98
2018-02-06T01:20:58.155Z,20.77
2018-02-06T01:23:25.654Z,17.90
2018-02-06T01:25:53.146Z,19.52
2018-02-06T01:28:21.415Z,19.85
2018-02-06T01:30:49.679Z,18.25
2018-02-06T01:33:17.173Z,19.30
2018-02-06T01:35:44.711Z,20.90
2018-02-06T01:38:12.982Z,21.02
2018-02-06T01:40:41.242Z,19.92
2018-02-06T01:43:08.742Z,20.60
2018-02-06T01:45:36.247Z,19.42
2018-02-06T01:48:03.762Z,21.42
2018-02-06T01:50:31.250Z,21.77
2018-02-06T01:52:58.764Z,21.23
2018-02-06T01:55:26.266Z,19.80
2018-02-06T01:57:53.780Z,24.12
2018-02-06T02:00:21.291Z,25.27
2018-02-06T02:02:48.803Z,23.85
2018-02-06T02:05:16.302Z,19.40
2018-02-06T02:07:43.810Z,22.40
2018-02-06T02:10:12.083Z,21.98
2018-02-06T02:12:40.350Z,21.25
2018-02-06T02:15:08.615Z,21.27
2018-02-06T02:17:36.107Z,26.37
2018-02-06T02:20:03.610Z,24.48
2018-02-06T02:22:31.098Z,19.70
2018-02-06T02:24:59.363Z,24.58
2018-02-06T02:27:26.892Z,22.98
2018-02-06T02:29:54.391Z,21.70
2018-02-06T02:32:22.667Z,22.50
2018-02-06T02:34:50.932Z,22.62
2018-02-06T02:37:18.438Z,27.58
2018-02-06T02:39:45.938Z,24.35
2018-02-06T04:40:37.928Z,20.17
2018-02-06T04:43:05.419Z,20.92
2018-02-06T04:45:32.954Z,22.95
2018-02-06T04:48:00.447Z,17.90
2018-02-06T04:50:27.954Z,22.17
2018-02-06T04:52:55.450Z,21.92
2018-02-06T04:55:22.939Z,20.62
2018-02-06T04:57:51.191Z,21.27
2018-02-06T05:00:18.691Z,20.73
2018-02-06T05:02:46.191Z,21.42
2018-02-06T05:05:13.708Z,20.85
2018-02-06T05:07:41.210Z,23.75
2018-02-06T05:10:08.706Z,25.52
2018-02-06T05:12:36.962Z,22.50
2018-02-06T05:15:04.465Z,24.60
2018-02-06T05:17:31.974Z,26.83
2018-02-06T05:19:59.554Z,23.15
2018-02-06T05:22:27.807Z,25.58
2018-02-06T05:24:56.806Z,19.48
2018-02-06T05:27:24.304Z,20.35
2018-02-06T05:29:51.803Z,22.98
2018-02-06T05:32:19.298Z,22.65
2018-02-06T05:34:47.562Z,23.30
2018-02-06T05:37:15.055Z,22.83
2018-02-06T05:39:42.566Z,24.45
2018-02-06T05:42:10.062Z,26.10
2018-02-06T05:44:37.586Z,21.80
2018-02-06T05:47:05.095Z,24.70
2018-02-06T05:49:32.596Z,27.95
2018-02-06T05:52:00.097Z,22.90
2018-02-06T05:54:27.597Z,21.58
2018-02-06T05:56:55.094Z,25.55
2018-02-06T05:59:23.351Z,24.27
2018-02-06T06:01:50.855Z,30.35
2018-02-06T06:04:18.350Z,21.67
2018-02-06T06:06:45.851Z,24.80
2018-02-06T06:09:14.127Z,24.98
2018-02-06T06:11:42.394Z,21.60
2018-02-06T06:14:10.655Z,23.65
2018-02-06T06:16:38.143Z,23.20
2018-02-06T06:19:05.658Z,26.65
2018-02-06T06:21:33.151Z,25.80
2018-02-06T06:24:01.426Z,24.20
2018-02-06T06:26:29.690Z,22.42
2018-02-06T06:28:57.198Z,23.62
2018-02-06T06:31:24.703Z,23.25
2018-02-06T06:33:52.195Z,23.00
2018-02-06T06:36:19.695Z,24.10
2018-02-06T06:38:47.197Z,23.45
2018-02-06T06:41:15.475Z,28.62
2018-02-06T06:43:43.750Z,24.12
2018-02-06T06:46:12.019Z,25.95
2018-02-06T06:48:40.278Z,26.67
2018-02-06T06:51:07.779Z,29.37
2018-02-06T06:53:35.291Z,26.08
2018-02-06T06:56:02.800Z,26.37
2018-02-06T06:58:30.294Z,26.50
2018-02-06T07:00:57.789Z,29.60
2018-02-06T07:03:26.051Z,23.95
2018-02-06T07:05:53.563Z,23.95
2018-02-06T07:08:21.055Z,23.58
2018-02-06T07:10:48.574Z,26.08
2018-02-06T07:13:16.071Z,28.45
2018-02-06T07:15:44.359Z,28.12
2018-02-06T07:18:11.872Z,27.48
2018-02-06T07:20:39.382Z,22.85
2018-02-06T07:23:06.875Z,26.25
2018-02-06T07:25:34.370Z,29.27
2018-02-06T07:28:01.854Z,32.15
2018-02-06T07:30:30.123Z,26.65
2018-02-06T07:32:57.621Z,24.30
2018-02-06T07:35:25.124Z,25.92
2018-02-06T07:37:52.615Z,28.62
2018-02-06T07:40:20.898Z,26.55
2018-02-06T07:42:49.170Z,25.05
2018-02-06T07:45:17.431Z,28.45
2018-02-06T07:47:44.931Z,29.25
2018-02-06T07:50:12.442Z,26.77
2018-02-06T07:52:39.932Z,25.90
2018-02-06T07:55:07.434Z,26.55
2018-02-06T07:57:34.931Z,25.88
2018-02-06T08:00:03.227Z,24.75
2018-02-06T08:02:31.487Z,25.73
2018-02-06T08:04:59.751Z,21.92
2018-02-06T08:07:27.251Z,27.37
2018-02-06T08:09:54.743Z,24.35
2018-02-06T08:12:22.279Z,22.95
2018-02-06T08:14:49.758Z,27.45
2018-02-06T08:17:17.259Z,22.58
2018-02-06T08:19:45.527Z,30.65
2018-02-06T08:22:13.794Z,23.05
2018-02-06T08:24:41.300Z,28.67
2018-02-06T08:27:08.795Z,22.58
2018-02-06T08:29:36.291Z,23.45
2018-02-06T08:32:04.559Z,25.40
2018-02-06T08:34:32.831Z,24.52
2018-02-06T08:37:01.112Z,23.87
2018-02-06T08:39:29.420Z,22.42
2018-02-06T08:41:56.931Z,23.10
2018-02-06T08:44:24.430Z,29.05
2018-02-06T08:46:51.926Z,23.50
2018-02-06T08:49:19.427Z,24.80
2018-02-06T08:51:47.686Z,22.77
2018-02-06T08:54:15.194Z,23.12
2018-02-06T08:56:42.740Z,21.65
2018-02-06T08:59:10.235Z,22.70
2018-02-06T09:01:37.732Z,23.02
2018-02-06T09:04:06.209Z,21.20
2018-02-06T09:06:34.471Z,21.87
2018-02-06T09:09:01.969Z,26.92
2018-02-06T09:11:29.470Z,26.65
2018-02-06T09:13:57.158Z,28.90
2018-02-06T09:16:25.428Z,23.25
2018-02-06T09:18:53.703Z,24.55
2018-02-06T09:21:21.190Z,21.37
2018-02-06T09:23:48.687Z,26.42
2018-02-06T09:26:16.191Z,26.15
2018-02-06T09:28:44.446Z,23.80
2018-02-06T09:31:11.952Z,29.42
2018-02-06T09:33:39.447Z,22.00
2018-02-06T09:36:06.955Z,29.58
2018-02-06T09:38:34.458Z,25.48
2018-02-06T09:41:01.982Z,26.65
2018-02-06T09:43:29.471Z,27.80
2018-02-06T09:45:56.959Z,23.35
2018-02-06T09:48:24.466Z,28.05
2018-02-06T09:50:52.078Z,27.23
2018-02-06T09:53:20.382Z,25.73
2018-02-06T09:55:47.867Z,27.45
2018-02-06T09:58:15.486Z,28.65
2018-02-06T10:00:43.743Z,32.60
2018-02-06T10:03:11.234Z,26.10
2018-02-06T10:05:39.550Z,31.27
2018-02-06T10:08:07.162Z,29.15
2018-02-06T10:10:35.426Z,25.25
2018-02-06T10:13:02.930Z,27.55
2018-02-06T10:15:30.421Z,28.77
2018-02-06T10:17:57.916Z,27.98
2018-02-06T10:20:26.183Z,31.27
2018-02-06T10:22:54.450Z,27.62
2018-02-06T10:25:21.946Z,30.95
2018-02-06T10:27:49.587Z,28.85
2018-02-06T10:30:17.960Z,27.80
2018-02-06T10:32:46.228Z,30.42
2018-02-06T10:35:14.499Z,28.40
2018-02-06T10:37:41.999Z,28.75
2018-02-06T10:40:09.494Z,27.40
2018-02-06T10:42:36.986Z,32.85
2018-02-06T10:45:05.251Z,28.02
2018-02-06T10:47:32.745Z,26.33
2018-02-06T10:50:00.238Z,34.80
2018-02-06T10:52:27.742Z,28.92
2018-02-06T10:54:56.018Z,33.80
2018-02-06T10:57:24.291Z,31.60
2018-02-06T10:59:52.561Z,29.25
2018-02-06T11:02:20.838Z,28.30
2018-02-06T11:04:49.094Z,27.10
2018-02-06T11:07:16.586Z,30.27
2018-02-06T11:09:44.845Z,27.65
2018-02-06T11:12:13.106Z,27.90
2018-02-06T11:14:40.800Z,31.12
2018-02-06T11:17:09.063Z,28.35
2018-02-06T11:19:37.334Z,27.90
2018-02-06T11:22:05.598Z,29.35
2018-02-06T11:24:33.094Z,29.23
2018-02-06T11:27:00.591Z,26.50
2018-02-06T11:29:28.083Z,32.92
2018-02-06T11:31:56.346Z,30.30
2018-02-06T11:34:25.362Z,32.67
2018-02-06T11:36:53.618Z,29.65
2018-02-06T11:39:22.623Z,26.50
2018-02-06T11:41:50.117Z,31.08
2018-02-06T11:44:17.607Z,28.80
2018-02-06T11:46:45.314Z,29.65
2018-02-06T11:49:13.582Z,28.02
2018-02-06T11:51:41.844Z,27.10
2018-02-06T11:54:09.359Z,28.20
2018-02-06T11:56:36.986Z,30.83
2018-02-06T11:59:05.239Z,28.80
2018-02-06T12:01:32.739Z,30.48
2018-02-06T12:04:00.235Z,25.55
2018-02-06T12:06:27.745Z,29.90
2018-02-06T12:08:56.017Z,32.95
2018-02-06T12:11:24.282Z,30.35
2018-02-06T12:13:52.535Z,28.95
2018-02-06T12:16:20.031Z,29.55
2018-02-06T12:18:48.287Z,33.22
2018-02-06T12:21:16.563Z,29.80
2018-02-06T12:23:44.838Z,32.53
2018-02-06T12:26:12.326Z,29.02
2018-02-06T12:28:39.842Z,33.50
2018-02-06T12:31:07.335Z,30.42
2018-02-06T12:33:34.831Z,32.70
2018-02-06T12:36:02.334Z,33.58
2018-02-06T12:38:30.602Z,35.58
2018-02-06T12:40:58.103Z,30.67
2018-02-06T12:43:26.475Z,31.02
2018-02-06T12:45:53.990Z,28.90
2018-02-06T12:48:21.487Z,33.20
2018-02-06T12:50:48.989Z,28.90
2018-02-06T12:53:16.512Z,32.63
2018-02-06T12:55:44.142Z,28.87
2018-02-06T12:58:12.527Z,39.20
2018-02-06T13:00:40.055Z,31.50
2018-02-06T13:03:08.345Z,32.20
2018-02-06T13:05:36.030Z,36.80
2018-02-06T13:08:04.418Z,30.45
2018-02-06T13:10:31.919Z,33.53
2018-02-06T13:12:59.438Z,35.10
2018-02-06T13:15:26.942Z,32.25
2018-02-06T13:17:54.531Z,32.05
2018-02-06T13:20:22.918Z,28.58
2018-02-06T13:22:51.183Z,29.45
2018-02-06T13:25:18.669Z,30.17
2018-02-06T13:27:46.174Z,31.65
2018-02-06T13:30:13.666Z,28.95
2018-02-06T13:32:41.936Z,31.42
2018-02-06T13:35:10.222Z,29.37
2018-02-06T13:37:38.483Z,35.20
2018-02-06T13:40:05.995Z,31.20
2018-02-06T13:42:33.502Z,35.30
2018-02-06T13:45:00.992Z,32.70
2018-02-06T13:47:28.487Z,32.42
2018-02-06T13:49:55.996Z,30.77
2018-02-06T13:52:24.367Z,31.48
2018-02-06T13:54:52.635Z,31.83
2018-02-06T13:57:21.692Z,30.65
2018-02-06T13:59:49.191Z,32.38
2018-02-06T14:02:17.458Z,29.37
2018-02-06T14:04:44.966Z,31.42
2018-02-06T14:07:12.478Z,35.35
2018-02-06T14:09:39.987Z,37.22
2018-02-06T14:12:07.482Z,33.95
2018-02-06T14:14:35.001Z,32.58
2018-02-06T14:17:02.507Z,32.50
2018-02-06T14:19:30.008Z,33.40
2018-02-06T14:21:57.518Z,33.75
2018-02-06T14:24:25.023Z,36.92
2018-02-06T14:26:52.515Z,36.13
2018-02-06T14:29:20.218Z,33.60
2018-02-06T14:31:48.479Z,36.85
2018-02-06T14:34:16.158Z,33.47
2018-02-06T14:36:44.638Z,40.00
2018-02-06T14:39:12.890Z,40.30
2018-02-06T14:41:40.401Z,37.03
2018-02-06T14:44:07.898Z,36.15
2018-02-06T14:46:35.382Z,36.95
2018-02-06T14:49:03.648Z,41.40
2018-02-06T14:51:31.138Z,40.08
2018-02-06T14:53:58.631Z,38.33
2018-02-06T14:56:26.122Z,41.28
2018-02-06T14:58:54.490Z,37.50
2018-02-06T15:01:22.018Z,39.90
2018-02-06T15:03:49.522Z,39.75
2018-02-06T15:06:17.013Z,35.88
2018-02-06T15:08:44.502Z,36.40
2018-02-06T15:11:11.994Z,36.58
2018-02-06T15:13:39.491Z,37.80
2018-02-06T15:16:07.002Z,39.67
2018-02-06T15:18:34.495Z,35.45
2018-02-06T15:21:02.151Z,40.78
2018-02-06T15:23:30.407Z,42.45
2018-02-06T15:25:58.082Z,36.88
2018-02-06T15:28:26.335Z,41.67
2018-02-06T15:30:53.827Z,39.53
2018-02-06T15:33:21.327Z,39.67
2018-02-06T15:35:48.836Z,45.92
2018-02-06T15:38:17.101Z,39.00
2018-02-06T15:40:45.474Z,38.63
2018-02-06T15:43:12.973Z,41.67
2018-02-06T15:45:40.490Z,43.22
2018-02-06T15:48:08.071Z,41.55
2018-02-06T15:50:36.331Z,41.20
2018-02-06T15:53:04.596Z,44.05
2018-02-06T15:55:32.091Z,44.88
2018-02-06T15:57:59.730Z,50.22
2018-02-06T16:00:45.785Z,49.38
2018-02-06T16:03:13.287Z,42.45
2018-02-06T16:05:41.558Z,43.42
2018-02-06T16:08:09.822Z,43.00
2018-02-06T16:10:37.323Z,49.83
2018-02-06T16:13:04.818Z,50.08
2018-02-06T16:15:32.514Z,50.85
2018-02-06T16:18:00.766Z,43.03
2018-02-06T16:20:28.266Z,43.85
2018-02-06T16:22:55.769Z,49.67
2018-02-06T16:25:23.259Z,47.13
2018-02-06T16:27:51.545Z,42.75
2018-02-06T16:30:19.911Z,51.10
2018-02-06T16:32:47.424Z,44.55
2018-02-06T16:35:14.922Z,41.97
2018-02-06T16:37:42.426Z,47.80
2018-02-06T16:40:09.980Z,46.33
2018-02-06T16:42:38.218Z,44.58
2018-02-06T16:45:05.716Z,48.65
2018-02-06T16:47:33.215Z,49.30
2018-02-06T16:50:00.706Z,45.60
2018-02-06T16:52:28.982Z,37.88
2018-02-06T16:54:57.250Z,47.15
2018-02-06T16:57:25.506Z,46.88
2018-02-06T16:59:52.999Z,49.80
2018-02-06T17:15:48.185Z,41.03
2018-02-06T17:18:16.447Z,42.83
2018-02-06T17:20:45.450Z,47.78
2018-02-06T17:23:13.719Z,44.63
2018-02-06T17:25:41.213Z,48.22
2018-02-06T17:28:08.718Z,39.58
2018-02-06T17:30:36.224Z,45.42
2018-02-06T17:33:03.730Z,47.42
2018-02-06T17:35:31.234Z,44.05
2018-02-06T17:37:59.498Z,39.92
2018-02-06T17:40:27.762Z,46.37
2018-02-06T17:42:55.273Z,45.95
2018-02-06T17:45:22.771Z,44.20
2018-02-06T17:47:50.268Z,42.83
2018-02-06T17:50:17.780Z,43.60
2018-02-06T17:52:45.294Z,41.90
2018-02-06T17:55:12.830Z,42.00
2018-02-06T17:57:41.092Z,40.65
2018-02-06T18:00:09.354Z,41.67
2018-02-06T18:02:37.619Z,38.50
2018-02-06T18:05:05.121Z,43.63
2018-02-06T18:07:33.390Z,45.67
2018-02-06T18:10:01.650Z,43.17
2018-02-06T18:12:29.174Z,38.53
2018-02-06T18:14:56.674Z,46.28
2018-02-06T18:17:24.938Z,41.03
2018-02-06T18:19:52.455Z,45.55
2018-02-06T18:22:19.951Z,44.65
2018-02-06T18:24:47.460Z,39.42
2018-02-06T18:27:14.958Z,35.85
2018-02-06T18:29:42.446Z,38.20
2018-02-06T18:32:10.722Z,42.80
2018-02-06T18:34:39.113Z,39.70
2018-02-06T18:37:07.371Z,39.50
2018-02-06T18:39:35.631Z,41.88
2018-02-06T18:42:03.319Z,39.35
2018-02-06T18:44:31.798Z,38.80
2018-02-06T18:47:00.086Z,46.53
2018-02-06T18:49:27.586Z,41.08
2018-02-06T18:51:55.078Z,39.13
2018-02-06T18:54:22.567Z,38.53
2018-02-06T18:56:50.067Z,40.00
2018-02-06T18:59:17.559Z,40.17
2018-02-06T19:01:45.838Z,42.50
2018-02-06T19:04:14.105Z,44.08
2018-02-06T19:06:41.600Z,41.45
2018-02-06T19:09:09.101Z,38.00
2018-02-06T19:11:36.616Z,41.80
2018-02-06T19:14:04.119Z,38.85
2018-02-06T19:16:31.815Z,38.45
2018-02-06T19:19:00.107Z,36.65
2018-02-06T19:21:27.619Z,37.70
2018-02-06T19:23:55.113Z,44.92
2018-02-06T19:26:23.371Z,45.53
2018-02-06T19:28:50.886Z,44.08
2018-02-06T19:31:18.380Z,47.75
2018-02-06T19:33:45.871Z,43.45
2018-02-06T19:36:13.388Z,48.60
2018-02-06T19:38:40.886Z,46.50
2018-02-06T19:41:08.538Z,43.60
2018-02-06T19:43:36.798Z,44.50
2018-02-06T19:46:04.298Z,44.50
2018-02-06T19:48:31.824Z,40.53
2018-02-06T19:51:00.082Z,38.67
2018-02-06T19:53:27.571Z,44.33
2018-02-06T19:55:55.851Z,37.38
2018-02-06T19:58:23.395Z,43.85
2018-02-06T20:00:51.659Z,48.85
2018-02-06T20:03:19.172Z,39.58
2018-02-06T20:05:46.678Z,44.53
2018-02-06T20:08:14.172Z,45.45
2018-02-06T20:10:41.812Z,37.20
2018-02-06T20:13:09.319Z,40.03
2018-02-06T20:15:36.821Z,40.53
2018-02-06T20:18:05.095Z,40.38
2018-02-06T20:20:33.359Z,42.42
2018-02-06T20:23:00.846Z,40.03
2018-02-06T20:25:28.491Z,36.53
2018-02-06T20:27:56.755Z,46.00
2018-02-06T20:30:24.456Z,39.25
2018-02-06T20:32:51.963Z,36.30
2018-02-06T20:35:19.455Z,38.85
2018-02-06T20:37:47.730Z,37.50
2018-02-06T20:40:16.011Z,39.25
2018-02-06T20:42:44.271Z,42.38
2018-02-06T20:45:11.774Z,41.50
2018-02-06T20:47:39.275Z,40.70
2018-02-06T20:50:06.778Z,39.53
2018-02-06T20:52:34.278Z,41.37
2018-02-06T20:55:01.786Z,36.60
2018-02-06T20:57:29.275Z,39.55
2018-02-06T20:59:56.775Z,40.20
2018-02-06T21:02:24.266Z,35.00
2018-02-06T21:04:51.761Z,44.88
2018-02-06T21:07:19.364Z,39.28
2018-02-06T21:09:47.630Z,38.00
2018-02-06T21:12:15.150Z,50.05
2018-02-06T21:14:42.641Z,38.55
2018-02-06T21:17:10.911Z,41.00
2018-02-06T21:22:37.082Z,44.92
2018-02-06T21:25:05.346Z,34.20
2018-02-06T21:27:32.835Z,41.33
2018-02-06T21:30:00.342Z,38.42
2018-02-06T21:32:27.834Z,38.08
2018-02-06T21:34:56.094Z,40.78
2018-02-06T21:37:23.702Z,39.22
2018-02-06T21:39:51.253Z,40.78
2018-02-06T21:42:18.755Z,46.05
2018-02-06T21:44:46.362Z,37.13
2018-02-06T21:47:13.872Z,42.35
2018-02-06T21:49:41.378Z,34.78
2018-02-06T21:52:08.882Z,39.80
2018-02-06T21:54:36.582Z,37.85
2018-02-06T21:57:04.963Z,35.15
2018-02-06T21:59:33.222Z,43.97
2018-02-06T22:02:00.720Z,44.38
2018-02-06T22:04:28.211Z,33.20
2018-02-06T22:06:55.709Z,40.75
2018-02-06T22:09:23.974Z,37.45
2018-02-06T22:11:51.482Z,41.03
2018-02-06T22:14:18.988Z,39.08
2018-02-06T22:16:46.493Z,39.08
2018-02-06T22:19:13.987Z,38.10
2018-02-06T22:21:42.401Z,40.33
2018-02-06T22:24:10.674Z,40.25
2018-02-06T22:26:38.931Z,39.15
2018-02-06T22:29:06.426Z,39.85
2018-02-06T22:31:34.070Z,36.97
2018-02-06T22:34:02.326Z,34.42
2018-02-06T22:36:31.327Z,41.20
2018-02-06T22:38:58.827Z,38.25
2018-02-06T22:41:26.322Z,32.35
2018-02-06T22:43:53.961Z,34.85
2018-02-06T22:46:21.451Z,36.67
2018-02-06T22:48:48.944Z,36.97
2018-02-06T22:51:17.199Z,34.70
2018-02-06T22:53:44.871Z,36.35
2018-02-06T22:56:13.138Z,38.42
2018-02-06T22:58:40.634Z,39.80
2018-02-06T23:01:08.118Z,33.85
2018-02-06T23:03:35.623Z,36.10
2018-02-06T23:06:03.886Z,35.28
2018-02-06T23:08:31.381Z,34.33
2018-02-06T23:10:58.871Z,35.15
2018-02-06T23:13:26.362Z,29.55
2018-02-06T23:15:54.039Z,35.22
2018-02-06T23:18:22.294Z,36.08
2018-02-06T23:20:49.797Z,40.05
2018-02-06T23:23:17.427Z,34.55
2018-02-06T23:25:45.690Z,35.60
2018-02-06T23:28:13.192Z,36.67
2018-02-06T23:30:40.702Z,32.95
2018-02-06T23:33:09.723Z,37.08
2018-02-06T23:35:37.987Z,30.33
2018-02-06T23:38:06.243Z,35.47
2018-02-06T23:40:33.744Z,31.77
2018-02-06T23:43:01.240Z,32.78
2018-02-06T23:45:28.739Z,35.45
2018-02-06T23:47:56.998Z,33.67
2018-02-06T23:50:24.502Z,36.55
2018-02-06T23:52:51.995Z,32.65
2018-02-06T23:55:19.498Z,29.98
2018-02-06T23:57:47.758Z,35.20
